sensor_id;sensor_type;location;lat;lon;timestamp;pressure;altitude;pressure_sealevel;temperature;humidity
66547;BME280;53400;50.364;14.874;2023-08-06T00:01:59;97738.53;;;14.56;100.00
66547;BME280;53400;50.364;14.874;2023-08-06T00:04:25;97739.31;;;14.56;100.00
66547;BME280;53400;50.364;14.874;2023-08-06T00:06:52;97736.19;;;14.68;100.00
66547;BME280;53400;50.364;14.874;2023-08-06T00:09:18;97738.00;;;14.54;100.00
66547;BME280;53400;50.364;14.874;2023-08-06T00:11:46;97730.28;;;14.66;100.00
66547;BME280;53400;50.364;14.874;2023-08-06T00:14:12;97737.00;;;14.68;100.00
66547;BME280;53400;50.364;14.874;2023-08-06T00:16:42;97731.66;;;14.63;100.00
66547;BME280;53400;50.364;14.874;2023-08-06T00:19:08;97725.81;;;14.75;100.00
66547;BME280;53400;50.364;14.874;2023-08-06T00:21:35;97721.72;;;14.64;100.00
66547;BME280;53400;50.364;14.874;2023-08-06T00:24:02;97722.41;;;14.69;100.00
66547;BME280;53400;50.364;14.874;2023-08-06T00:26:28;97724.97;;;14.80;100.00
66547;BME280;53400;50.364;14.874;2023-08-06T00:28:54;97726.59;;;14.62;100.00
66547;BME280;53400;50.364;14.874;2023-08-06T00:31:19;97728.47;;;14.61;100.00
66547;BME280;53400;50.364;14.874;2023-08-06T00:33:45;97733.44;;;14.73;100.00
66547;BME280;53400;50.364;14.874;2023-08-06T00:36:11;97730.22;;;14.71;100.00
66547;BME280;53400;50.364;14.874;2023-08-06T00:38:37;97715.94;;;14.71;100.00
66547;BME280;53400;50.364;14.874;2023-08-06T00:41:04;97712.66;;;14.74;100.00
66547;BME280;53400;50.364;14.874;2023-08-06T00:43:30;97711.63;;;14.69;100.00
66547;BME280;53400;50.364;14.874;2023-08-06T00:45:56;97707.84;;;14.71;100.00
66547;BME280;53400;50.364;14.874;2023-08-06T00:48:22;97700.91;;;14.83;100.00
66547;BME280;53400;50.364;14.874;2023-08-06T00:50:48;97696.97;;;14.76;100.00
66547;BME280;53400;50.364;14.874;2023-08-06T00:53:14;97694.47;;;14.65;100.00
66547;BME280;53400;50.364;14.874;2023-08-06T00:55:40;97683.84;;;14.55;100.00
66547;BME280;53400;50.364;14.874;2023-08-06T00:58:09;97690.25;;;14.59;100.00
66547;BME280;53400;50.364;14.874;2023-08-06T01:00:35;97681.88;;;14.61;100.00
66547;BME280;53400;50.364;14.874;2023-08-06T01:03:01;97680.69;;;14.48;100.00
66547;BME280;53400;50.364;14.874;2023-08-06T01:05:27;97674.00;;;14.64;100.00
66547;BME280;53400;50.364;14.874;2023-08-06T01:08:06;97665.75;;;14.75;100.00
66547;BME280;53400;50.364;14.874;2023-08-06T01:10:43;97653.03;;;14.61;100.00
66547;BME280;53400;50.364;14.874;2023-08-06T01:13:24;97662.28;;;14.55;100.00
66547;BME280;53400;50.364;14.874;2023-08-06T01:15:55;97654.22;;;14.55;100.00
66547;BME280;53400;50.364;14.874;2023-08-06T01:18:25;97649.91;;;14.54;100.00
66547;BME280;53400;50.364;14.874;2023-08-06T01:20:52;97650.22;;;14.53;100.00
66547;BME280;53400;50.364;14.874;2023-08-06T01:23:18;97659.41;;;14.52;100.00
66547;BME280;53400;50.364;14.874;2023-08-06T01:25:56;97657.13;;;14.40;100.00
66547;BME280;53400;50.364;14.874;2023-08-06T01:28:33;97644.22;;;14.56;100.00
66547;BME280;53400;50.364;14.874;2023-08-06T01:31:04;97643.13;;;14.57;100.00
66547;BME280;53400;50.364;14.874;2023-08-06T01:33:38;97644.06;;;14.47;100.00
66547;BME280;53400;50.364;14.874;2023-08-06T01:36:08;97640.59;;;14.28;100.00
66547;BME280;53400;50.364;14.874;2023-08-06T01:38:35;97638.75;;;14.42;100.00
66547;BME280;53400;50.364;14.874;2023-08-06T01:41:00;97644.28;;;14.51;100.00
66547;BME280;53400;50.364;14.874;2023-08-06T01:43:27;97635.19;;;14.46;100.00
66547;BME280;53400;50.364;14.874;2023-08-06T01:45:52;97639.13;;;14.54;100.00
66547;BME280;53400;50.364;14.874;2023-08-06T01:48:18;97632.56;;;14.41;100.00
66547;BME280;53400;50.364;14.874;2023-08-06T01:50:44;97629.97;;;14.55;100.00
66547;BME280;53400;50.364;14.874;2023-08-06T01:53:11;97624.56;;;14.55;100.00
66547;BME280;53400;50.364;14.874;2023-08-06T01:55:37;97630.59;;;14.47;100.00
66547;BME280;53400;50.364;14.874;2023-08-06T01:58:03;97625.88;;;14.39;100.00
66547;BME280;53400;50.364;14.874;2023-08-06T02:00:29;97626.38;;;14.41;100.00
66547;BME280;53400;50.364;14.874;2023-08-06T02:02:55;97633.31;;;14.28;100.00
66547;BME280;53400;50.364;14.874;2023-08-06T02:05:20;97632.88;;;14.40;100.00
66547;BME280;53400;50.364;14.874;2023-08-06T02:07:46;97630.47;;;14.38;100.00
66547;BME280;53400;50.364;14.874;2023-08-06T02:10:14;97626.75;;;14.34;100.00
66547;BME280;53400;50.364;14.874;2023-08-06T02:12:43;97627.91;;;14.47;100.00
66547;BME280;53400;50.364;14.874;2023-08-06T02:15:09;97632.22;;;14.29;100.00
66547;BME280;53400;50.364;14.874;2023-08-06T02:17:35;97639.72;;;14.32;100.00
66547;BME280;53400;50.364;14.874;2023-08-06T02:20:01;97637.16;;;14.41;100.00
66547;BME280;53400;50.364;14.874;2023-08-06T02:22:27;97642.84;;;14.39;100.00
66547;BME280;53400;50.364;14.874;2023-08-06T02:24:56;97640.16;;;14.39;100.00
66547;BME280;53400;50.364;14.874;2023-08-06T02:27:23;97632.94;;;14.35;100.00
66547;BME280;53400;50.364;14.874;2023-08-06T02:29:49;97626.38;;;14.41;100.00
66547;BME280;53400;50.364;14.874;2023-08-06T02:32:15;97622.97;;;14.35;100.00
66547;BME280;53400;50.364;14.874;2023-08-06T02:34:41;97609.22;;;14.37;100.00
66547;BME280;53400;50.364;14.874;2023-08-06T02:37:07;97605.66;;;14.22;100.00
66547;BME280;53400;50.364;14.874;2023-08-06T02:39:32;97600.84;;;14.38;100.00
66547;BME280;53400;50.364;14.874;2023-08-06T02:42:00;97596.63;;;14.32;100.00
66547;BME280;53400;50.364;14.874;2023-08-06T02:44:28;97588.78;;;14.17;100.00
66547;BME280;53400;50.364;14.874;2023-08-06T02:46:54;97578.22;;;14.20;100.00
66547;BME280;53400;50.364;14.874;2023-08-06T02:49:20;97580.44;;;14.18;100.00
66547;BME280;53400;50.364;14.874;2023-08-06T02:51:46;97574.69;;;14.06;100.00
66547;BME280;53400;50.364;14.874;2023-08-06T02:54:11;97564.66;;;13.93;100.00
66547;BME280;53400;50.364;14.874;2023-08-06T02:56:37;97564.88;;;13.96;100.00
66547;BME280;53400;50.364;14.874;2023-08-06T02:59:03;97563.56;;;14.13;100.00
66547;BME280;53400;50.364;14.874;2023-08-06T03:01:31;97563.34;;;14.09;100.00
66547;BME280;53400;50.364;14.874;2023-08-06T03:03:56;97564.50;;;14.03;100.00
66547;BME280;53400;50.364;14.874;2023-08-06T03:06:22;97569.00;;;14.08;100.00
66547;BME280;53400;50.364;14.874;2023-08-06T03:08:48;97556.78;;;13.96;100.00
66547;BME280;53400;50.364;14.874;2023-08-06T03:11:14;97563.28;;;13.95;100.00
66547;BME280;53400;50.364;14.874;2023-08-06T03:13:40;97551.41;;;13.96;100.00
66547;BME280;53400;50.364;14.874;2023-08-06T03:16:06;97555.19;;;13.95;100.00
66547;BME280;53400;50.364;14.874;2023-08-06T03:18:33;97556.88;;;13.91;100.00
66547;BME280;53400;50.364;14.874;2023-08-06T03:20:59;97561.72;;;14.08;100.00
66547;BME280;53400;50.364;14.874;2023-08-06T03:23:25;97561.44;;;14.10;100.00
66547;BME280;53400;50.364;14.874;2023-08-06T03:25:51;97562.47;;;13.95;100.00
66547;BME280;53400;50.364;14.874;2023-08-06T03:28:16;97559.78;;;13.95;100.00
66547;BME280;53400;50.364;14.874;2023-08-06T03:30:43;97560.22;;;13.83;100.00
66547;BME280;53400;50.364;14.874;2023-08-06T03:33:08;97564.16;;;13.91;100.00
66547;BME280;53400;50.364;14.874;2023-08-06T03:35:36;97556.66;;;13.88;100.00
66547;BME280;53400;50.364;14.874;2023-08-06T03:38:01;97562.09;;;14.02;100.00
66547;BME280;53400;50.364;14.874;2023-08-06T03:40:28;97552.50;;;13.95;100.00
66547;BME280;53400;50.364;14.874;2023-08-06T03:42:53;97547.56;;;13.84;100.00
66547;BME280;53400;50.364;14.874;2023-08-06T03:45:19;97542.28;;;13.79;100.00
66547;BME280;53400;50.364;14.874;2023-08-06T03:47:45;97546.41;;;13.71;100.00
66547;BME280;53400;50.364;14.874;2023-08-06T03:50:11;97538.72;;;13.64;100.00
66547;BME280;53400;50.364;14.874;2023-08-06T03:52:38;97535.50;;;13.62;100.00
66547;BME280;53400;50.364;14.874;2023-08-06T03:55:04;97533.81;;;13.66;100.00
66547;BME280;53400;50.364;14.874;2023-08-06T03:57:30;97530.34;;;13.66;100.00
66547;BME280;53400;50.364;14.874;2023-08-06T03:59:56;97529.13;;;13.58;100.00
66547;BME280;53400;50.364;14.874;2023-08-06T04:02:22;97528.53;;;13.61;100.00
66547;BME280;53400;50.364;14.874;2023-08-06T04:04:48;97523.38;;;13.65;100.00
66547;BME280;53400;50.364;14.874;2023-08-06T04:07:14;97518.72;;;13.70;100.00
66547;BME280;53400;50.364;14.874;2023-08-06T04:09:56;97510.69;;;13.65;100.00
66547;BME280;53400;50.364;14.874;2023-08-06T04:12:22;97505.88;;;13.81;100.00
66547;BME280;53400;50.364;14.874;2023-08-06T04:14:48;97508.44;;;13.72;100.00
66547;BME280;53400;50.364;14.874;2023-08-06T04:17:14;97499.50;;;13.77;100.00
66547;BME280;53400;50.364;14.874;2023-08-06T04:19:40;97507.38;;;13.73;100.00
66547;BME280;53400;50.364;14.874;2023-08-06T04:22:05;97494.91;;;13.77;100.00
66547;BME280;53400;50.364;14.874;2023-08-06T04:24:32;97490.25;;;13.83;100.00
66547;BME280;53400;50.364;14.874;2023-08-06T04:26:59;97489.25;;;13.79;100.00
66547;BME280;53400;50.364;14.874;2023-08-06T04:29:25;97493.59;;;13.75;100.00
66547;BME280;53400;50.364;14.874;2023-08-06T04:31:51;97484.81;;;13.69;100.00
66547;BME280;53400;50.364;14.874;2023-08-06T04:34:17;97491.72;;;13.75;100.00
66547;BME280;53400;50.364;14.874;2023-08-06T04:36:42;97487.03;;;13.81;100.00
66547;BME280;53400;50.364;14.874;2023-08-06T04:39:08;97483.50;;;13.86;100.00
66547;BME280;53400;50.364;14.874;2023-08-06T04:41:34;97477.47;;;13.75;100.00
66547;BME280;53400;50.364;14.874;2023-08-06T04:44:02;97479.28;;;13.80;100.00
66547;BME280;53400;50.364;14.874;2023-08-06T04:46:29;97478.56;;;13.74;100.00
66547;BME280;53400;50.364;14.874;2023-08-06T04:48:55;97488.06;;;13.66;100.00
66547;BME280;53400;50.364;14.874;2023-08-06T04:51:20;97477.31;;;13.66;100.00
66547;BME280;53400;50.364;14.874;2023-08-06T04:53:46;97470.56;;;13.69;100.00
66547;BME280;53400;50.364;14.874;2023-08-06T04:56:12;97466.41;;;13.76;100.00
66547;BME280;53400;50.364;14.874;2023-08-06T04:58:39;97461.69;;;13.68;100.00
66547;BME280;53400;50.364;14.874;2023-08-06T05:01:06;97454.94;;;13.71;100.00
66547;BME280;53400;50.364;14.874;2023-08-06T05:03:34;97461.69;;;13.68;100.00
66547;BME280;53400;50.364;14.874;2023-08-06T05:06:00;97460.09;;;13.67;100.00
66547;BME280;53400;50.364;14.874;2023-08-06T05:08:26;97463.53;;;13.73;100.00
66547;BME280;53400;50.364;14.874;2023-08-06T05:10:52;97461.81;;;13.77;100.00
66547;BME280;53400;50.364;14.874;2023-08-06T05:13:20;97465.31;;;13.77;100.00
66547;BME280;53400;50.364;14.874;2023-08-06T05:15:46;97464.13;;;13.84;100.00
66547;BME280;53400;50.364;14.874;2023-08-06T05:18:13;97470.69;;;13.77;100.00
66547;BME280;53400;50.364;14.874;2023-08-06T05:20:42;97473.25;;;13.88;100.00
66547;BME280;53400;50.364;14.874;2023-08-06T05:23:08;97470.91;;;14.14;100.00
66547;BME280;53400;50.364;14.874;2023-08-06T05:25:35;97460.53;;;14.07;100.00
66547;BME280;53400;50.364;14.874;2023-08-06T05:28:04;97460.59;;;14.02;100.00
66547;BME280;53400;50.364;14.874;2023-08-06T05:30:30;97473.94;;;13.93;100.00
66547;BME280;53400;50.364;14.874;2023-08-06T05:32:56;97474.56;;;14.04;100.00
66547;BME280;53400;50.364;14.874;2023-08-06T05:35:23;97474.38;;;14.00;100.00
66547;BME280;53400;50.364;14.874;2023-08-06T05:37:50;97480.84;;;13.99;100.00
66547;BME280;53400;50.364;14.874;2023-08-06T05:40:16;97483.38;;;14.23;100.00
66547;BME280;53400;50.364;14.874;2023-08-06T05:42:42;97486.84;;;14.10;100.00
66547;BME280;53400;50.364;14.874;2023-08-06T05:45:09;97478.97;;;14.14;100.00
66547;BME280;53400;50.364;14.874;2023-08-06T05:47:35;97486.78;;;14.29;100.00
66547;BME280;53400;50.364;14.874;2023-08-06T05:50:01;97483.81;;;14.31;100.00
66547;BME280;53400;50.364;14.874;2023-08-06T05:52:29;97492.94;;;14.49;100.00
66547;BME280;53400;50.364;14.874;2023-08-06T05:54:54;97484.81;;;14.35;100.00
66547;BME280;53400;50.364;14.874;2023-08-06T05:57:21;97494.00;;;14.34;100.00
66547;BME280;53400;50.364;14.874;2023-08-06T05:59:47;97501.50;;;14.51;100.00
66547;BME280;53400;50.364;14.874;2023-08-06T06:02:13;97497.84;;;14.60;100.00
66547;BME280;53400;50.364;14.874;2023-08-06T06:04:40;97496.16;;;14.64;100.00
66547;BME280;53400;50.364;14.874;2023-08-06T06:07:06;97494.06;;;14.61;100.00
66547;BME280;53400;50.364;14.874;2023-08-06T06:09:33;97497.06;;;14.74;100.00
66547;BME280;53400;50.364;14.874;2023-08-06T06:11:59;97491.97;;;14.86;100.00
66547;BME280;53400;50.364;14.874;2023-08-06T06:14:25;97491.25;;;14.53;100.00
66547;BME280;53400;50.364;14.874;2023-08-06T06:16:51;97484.34;;;14.60;100.00
66547;BME280;53400;50.364;14.874;2023-08-06T06:19:18;97478.56;;;14.53;100.00
66547;BME280;53400;50.364;14.874;2023-08-06T06:21:44;97482.78;;;14.59;100.00
66547;BME280;53400;50.364;14.874;2023-08-06T06:24:10;97484.88;;;14.62;100.00
66547;BME280;53400;50.364;14.874;2023-08-06T06:26:37;97480.59;;;14.61;100.00
66547;BME280;53400;50.364;14.874;2023-08-06T06:29:03;97485.53;;;14.40;100.00
66547;BME280;53400;50.364;14.874;2023-08-06T06:31:29;97471.97;;;14.45;100.00
66547;BME280;53400;50.364;14.874;2023-08-06T06:33:55;97480.00;;;14.64;100.00
66547;BME280;53400;50.364;14.874;2023-08-06T06:36:21;97475.78;;;14.72;100.00
66547;BME280;53400;50.364;14.874;2023-08-06T06:38:47;97477.78;;;14.66;100.00
66547;BME280;53400;50.364;14.874;2023-08-06T06:41:15;97478.00;;;14.70;100.00
66547;BME280;53400;50.364;14.874;2023-08-06T06:43:42;97472.97;;;14.63;100.00
66547;BME280;53400;50.364;14.874;2023-08-06T06:46:08;97474.59;;;14.78;100.00
66547;BME280;53400;50.364;14.874;2023-08-06T06:48:34;97478.28;;;14.68;100.00
66547;BME280;53400;50.364;14.874;2023-08-06T06:51:00;97479.28;;;14.73;100.00
66547;BME280;53400;50.364;14.874;2023-08-06T06:53:26;97479.69;;;14.80;100.00
66547;BME280;53400;50.364;14.874;2023-08-06T06:55:55;97481.75;;;14.97;100.00
66547;BME280;53400;50.364;14.874;2023-08-06T06:58:21;97481.88;;;14.91;100.00
66547;BME280;53400;50.364;14.874;2023-08-06T07:00:48;97482.38;;;14.94;100.00
66547;BME280;53400;50.364;14.874;2023-08-06T07:03:14;97481.16;;;15.00;100.00
66547;BME280;53400;50.364;14.874;2023-08-06T07:05:41;97474.28;;;15.07;100.00
66547;BME280;53400;50.364;14.874;2023-08-06T07:08:08;97483.44;;;15.20;100.00
66547;BME280;53400;50.364;14.874;2023-08-06T07:10:34;97483.75;;;15.05;100.00
66547;BME280;53400;50.364;14.874;2023-08-06T07:13:01;97478.66;;;15.17;100.00
66547;BME280;53400;50.364;14.874;2023-08-06T07:15:27;97477.75;;;15.22;100.00
66547;BME280;53400;50.364;14.874;2023-08-06T07:17:54;97476.47;;;15.05;100.00
66547;BME280;53400;50.364;14.874;2023-08-06T07:20:20;97474.38;;;15.16;100.00
66547;BME280;53400;50.364;14.874;2023-08-06T07:22:46;97470.88;;;15.02;100.00
66547;BME280;53400;50.364;14.874;2023-08-06T07:25:13;97466.28;;;15.02;100.00
66547;BME280;53400;50.364;14.874;2023-08-06T07:27:39;97458.88;;;15.08;100.00
66547;BME280;53400;50.364;14.874;2023-08-06T07:30:06;97464.50;;;14.98;100.00
66547;BME280;53400;50.364;14.874;2023-08-06T07:32:32;97461.34;;;15.32;100.00
66547;BME280;53400;50.364;14.874;2023-08-06T07:34:59;97454.75;;;15.24;100.00
66547;BME280;53400;50.364;14.874;2023-08-06T07:37:26;97457.69;;;15.14;100.00
66547;BME280;53400;50.364;14.874;2023-08-06T07:39:54;97452.00;;;15.16;100.00
66547;BME280;53400;50.364;14.874;2023-08-06T07:42:20;97447.75;;;15.23;100.00
66547;BME280;53400;50.364;14.874;2023-08-06T07:44:51;97447.44;;;15.38;100.00
66547;BME280;53400;50.364;14.874;2023-08-06T07:47:17;97441.31;;;15.47;100.00
66547;BME280;53400;50.364;14.874;2023-08-06T07:49:43;97451.03;;;15.34;100.00
66547;BME280;53400;50.364;14.874;2023-08-06T07:52:10;97444.78;;;15.25;100.00
66547;BME280;53400;50.364;14.874;2023-08-06T07:54:37;97441.38;;;15.55;100.00
66547;BME280;53400;50.364;14.874;2023-08-06T07:57:03;97443.56;;;15.31;100.00
66547;BME280;53400;50.364;14.874;2023-08-06T07:59:29;97439.41;;;15.47;100.00
66547;BME280;53400;50.364;14.874;2023-08-06T08:01:54;97435.84;;;15.38;100.00
66547;BME280;53400;50.364;14.874;2023-08-06T08:04:21;97435.34;;;15.36;100.00
66547;BME280;53400;50.364;14.874;2023-08-06T08:06:46;97436.25;;;15.31;100.00
66547;BME280;53400;50.364;14.874;2023-08-06T08:09:14;97437.69;;;15.51;100.00
66547;BME280;53400;50.364;14.874;2023-08-06T08:11:40;97438.03;;;15.36;100.00
66547;BME280;53400;50.364;14.874;2023-08-06T08:14:06;97435.59;;;15.48;100.00
66547;BME280;53400;50.364;14.874;2023-08-06T08:16:32;97427.75;;;15.38;100.00
66547;BME280;53400;50.364;14.874;2023-08-06T08:18:59;97425.75;;;15.30;100.00
66547;BME280;53400;50.364;14.874;2023-08-06T08:21:24;97428.06;;;15.59;100.00
66547;BME280;53400;50.364;14.874;2023-08-06T08:23:51;97427.38;;;15.53;100.00
66547;BME280;53400;50.364;14.874;2023-08-06T08:26:18;97417.50;;;15.49;100.00
66547;BME280;53400;50.364;14.874;2023-08-06T08:28:44;97424.66;;;15.67;100.00
66547;BME280;53400;50.364;14.874;2023-08-06T08:31:11;97417.22;;;15.73;100.00
66547;BME280;53400;50.364;14.874;2023-08-06T08:33:37;97420.59;;;15.78;100.00
66547;BME280;53400;50.364;14.874;2023-08-06T08:36:03;97419.00;;;15.77;100.00
66547;BME280;53400;50.364;14.874;2023-08-06T08:38:30;97417.91;;;15.78;100.00
66547;BME280;53400;50.364;14.874;2023-08-06T08:40:56;97422.78;;;15.68;100.00
66547;BME280;53400;50.364;14.874;2023-08-06T08:43:23;97421.22;;;15.75;100.00
66547;BME280;53400;50.364;14.874;2023-08-06T08:45:50;97408.75;;;15.66;100.00
66547;BME280;53400;50.364;14.874;2023-08-06T08:48:17;97409.75;;;15.70;100.00
66547;BME280;53400;50.364;14.874;2023-08-06T08:50:46;97412.72;;;15.91;100.00
66547;BME280;53400;50.364;14.874;2023-08-06T08:53:15;97412.75;;;15.68;100.00
66547;BME280;53400;50.364;14.874;2023-08-06T08:55:43;97410.81;;;15.82;100.00
66547;BME280;53400;50.364;14.874;2023-08-06T08:58:14;97413.06;;;15.89;100.00
66547;BME280;53400;50.364;14.874;2023-08-06T09:00:42;97406.34;;;15.64;100.00
66547;BME280;53400;50.364;14.874;2023-08-06T09:03:08;97409.50;;;15.80;100.00
66547;BME280;53400;50.364;14.874;2023-08-06T09:05:34;97405.00;;;15.98;100.00
66547;BME280;53400;50.364;14.874;2023-08-06T09:08:03;97401.91;;;16.13;100.00
66547;BME280;53400;50.364;14.874;2023-08-06T09:10:29;97401.50;;;15.97;100.00
66547;BME280;53400;50.364;14.874;2023-08-06T09:12:56;97399.16;;;16.04;100.00
66547;BME280;53400;50.364;14.874;2023-08-06T09:15:24;97392.81;;;16.09;100.00
66547;BME280;53400;50.364;14.874;2023-08-06T09:17:51;97390.41;;;16.39;100.00
66547;BME280;53400;50.364;14.874;2023-08-06T09:20:18;97397.69;;;16.29;100.00
66547;BME280;53400;50.364;14.874;2023-08-06T09:22:44;97388.00;;;16.28;100.00
66547;BME280;53400;50.364;14.874;2023-08-06T09:25:11;97385.22;;;16.11;100.00
66547;BME280;53400;50.364;14.874;2023-08-06T09:27:39;97389.50;;;16.12;100.00
66547;BME280;53400;50.364;14.874;2023-08-06T09:30:07;97393.81;;;16.22;100.00
66547;BME280;53400;50.364;14.874;2023-08-06T09:32:47;97392.84;;;16.18;100.00
66547;BME280;53400;50.364;14.874;2023-08-06T09:35:17;97385.09;;;16.16;100.00
66547;BME280;53400;50.364;14.874;2023-08-06T09:37:44;97384.06;;;16.43;100.00
66547;BME280;53400;50.364;14.874;2023-08-06T09:40:24;97379.09;;;16.37;100.00
66547;BME280;53400;50.364;14.874;2023-08-06T09:42:50;97372.63;;;16.46;100.00
66547;BME280;53400;50.364;14.874;2023-08-06T09:45:17;97366.94;;;16.57;100.00
66547;BME280;53400;50.364;14.874;2023-08-06T09:47:44;97373.03;;;16.80;100.00
66547;BME280;53400;50.364;14.874;2023-08-06T09:50:16;97365.75;;;16.80;100.00
66547;BME280;53400;50.364;14.874;2023-08-06T09:52:42;97367.13;;;16.69;100.00
66547;BME280;53400;50.364;14.874;2023-08-06T09:55:10;97366.59;;;16.49;100.00
66547;BME280;53400;50.364;14.874;2023-08-06T09:57:38;97366.41;;;16.37;100.00
66547;BME280;53400;50.364;14.874;2023-08-06T10:00:06;97360.72;;;16.47;100.00
66547;BME280;53400;50.364;14.874;2023-08-06T10:02:35;97361.00;;;16.46;100.00
66547;BME280;53400;50.364;14.874;2023-08-06T10:05:02;97356.44;;;16.46;100.00
66547;BME280;53400;50.364;14.874;2023-08-06T10:07:30;97349.88;;;16.39;100.00
66547;BME280;53400;50.364;14.874;2023-08-06T10:09:56;97348.78;;;16.48;100.00
66547;BME280;53400;50.364;14.874;2023-08-06T10:12:23;97349.94;;;16.65;100.00
66547;BME280;53400;50.364;14.874;2023-08-06T10:14:53;97346.09;;;16.57;100.00
66547;BME280;53400;50.364;14.874;2023-08-06T10:17:21;97335.81;;;16.68;100.00
66547;BME280;53400;50.364;14.874;2023-08-06T10:19:48;97338.16;;;16.61;100.00
66547;BME280;53400;50.364;14.874;2023-08-06T10:22:16;97339.66;;;16.76;100.00
66547;BME280;53400;50.364;14.874;2023-08-06T10:24:49;97340.94;;;16.87;100.00
66547;BME280;53400;50.364;14.874;2023-08-06T10:27:28;97332.13;;;16.72;100.00
66547;BME280;53400;50.364;14.874;2023-08-06T10:29:54;97327.34;;;16.61;100.00
66547;BME280;53400;50.364;14.874;2023-08-06T10:32:21;97321.97;;;16.69;100.00
66547;BME280;53400;50.364;14.874;2023-08-06T10:34:54;97329.75;;;16.62;100.00
66547;BME280;53400;50.364;14.874;2023-08-06T10:37:24;97332.59;;;16.66;100.00
66547;BME280;53400;50.364;14.874;2023-08-06T10:39:52;97332.66;;;16.83;100.00
66547;BME280;53400;50.364;14.874;2023-08-06T10:42:22;97329.31;;;17.04;100.00
66547;BME280;53400;50.364;14.874;2023-08-06T10:45:13;97326.47;;;17.17;100.00
66547;BME280;53400;50.364;14.874;2023-08-06T10:47:41;97323.59;;;17.14;100.00
66547;BME280;53400;50.364;14.874;2023-08-06T10:50:07;97325.03;;;17.29;100.00
66547;BME280;53400;50.364;14.874;2023-08-06T10:52:34;97335.06;;;17.19;100.00
66547;BME280;53400;50.364;14.874;2023-08-06T10:55:02;97329.00;;;17.05;100.00
66547;BME280;53400;50.364;14.874;2023-08-06T10:57:28;97322.81;;;16.87;100.00
66547;BME280;53400;50.364;14.874;2023-08-06T10:59:53;97328.69;;;16.81;100.00
66547;BME280;53400;50.364;14.874;2023-08-06T11:02:19;97332.66;;;17.01;100.00
66547;BME280;53400;50.364;14.874;2023-08-06T11:04:45;97337.59;;;17.25;100.00
66547;BME280;53400;50.364;14.874;2023-08-06T11:07:13;97338.56;;;17.29;100.00
66547;BME280;53400;50.364;14.874;2023-08-06T11:09:39;97342.34;;;17.36;100.00
66547;BME280;53400;50.364;14.874;2023-08-06T11:12:09;97348.69;;;17.49;100.00
66547;BME280;53400;50.364;14.874;2023-08-06T11:14:35;97339.34;;;17.38;100.00
66547;BME280;53400;50.364;14.874;2023-08-06T11:17:01;97343.00;;;17.16;100.00
66547;BME280;53400;50.364;14.874;2023-08-06T11:19:27;97342.84;;;17.04;100.00
66547;BME280;53400;50.364;14.874;2023-08-06T11:21:54;97347.44;;;16.94;100.00
66547;BME280;53400;50.364;14.874;2023-08-06T11:24:20;97339.84;;;17.14;100.00
66547;BME280;53400;50.364;14.874;2023-08-06T11:26:46;97338.56;;;17.03;100.00
66547;BME280;53400;50.364;14.874;2023-08-06T11:29:15;97343.63;;;17.13;100.00
66547;BME280;53400;50.364;14.874;2023-08-06T11:31:41;97347.31;;;17.26;100.00
66547;BME280;53400;50.364;14.874;2023-08-06T11:34:07;97343.34;;;17.06;100.00
66547;BME280;53400;50.364;14.874;2023-08-06T11:36:34;97343.66;;;17.04;100.00
66547;BME280;53400;50.364;14.874;2023-08-06T11:39:02;97339.50;;;17.24;100.00
66547;BME280;53400;50.364;14.874;2023-08-06T11:41:31;97340.63;;;17.23;100.00
66547;BME280;53400;50.364;14.874;2023-08-06T11:43:57;97333.78;;;17.00;100.00
66547;BME280;53400;50.364;14.874;2023-08-06T11:46:29;97339.97;;;16.91;100.00
66547;BME280;53400;50.364;14.874;2023-08-06T11:48:56;97346.19;;;16.83;100.00
66547;BME280;53400;50.364;14.874;2023-08-06T11:51:22;97334.41;;;16.96;100.00
66547;BME280;53400;50.364;14.874;2023-08-06T11:53:50;97340.44;;;16.85;100.00
66547;BME280;53400;50.364;14.874;2023-08-06T11:56:16;97335.34;;;16.92;100.00
66547;BME280;53400;50.364;14.874;2023-08-06T11:58:46;97342.38;;;16.84;100.00
66547;BME280;53400;50.364;14.874;2023-08-06T12:01:13;97343.50;;;16.83;100.00
66547;BME280;53400;50.364;14.874;2023-08-06T12:03:41;97334.69;;;16.69;100.00
66547;BME280;53400;50.364;14.874;2023-08-06T12:06:07;97340.16;;;16.86;100.00
66547;BME280;53400;50.364;14.874;2023-08-06T12:08:33;97340.75;;;16.74;100.00
66547;BME280;53400;50.364;14.874;2023-08-06T12:11:00;97342.34;;;16.76;100.00
66547;BME280;53400;50.364;14.874;2023-08-06T12:13:26;97349.69;;;16.84;100.00
66547;BME280;53400;50.364;14.874;2023-08-06T12:15:53;97342.06;;;16.77;100.00
66547;BME280;53400;50.364;14.874;2023-08-06T12:18:19;97346.34;;;16.78;100.00
66547;BME280;53400;50.364;14.874;2023-08-06T12:20:47;97342.03;;;16.86;100.00
66547;BME280;53400;50.364;14.874;2023-08-06T12:23:13;97335.19;;;16.88;100.00
66547;BME280;53400;50.364;14.874;2023-08-06T12:25:42;97345.78;;;16.67;100.00
66547;BME280;53400;50.364;14.874;2023-08-06T12:28:07;97341.41;;;16.89;100.00
66547;BME280;53400;50.364;14.874;2023-08-06T12:30:35;97345.53;;;16.78;100.00
66547;BME280;53400;50.364;14.874;2023-08-06T12:33:01;97341.84;;;16.65;100.00
66547;BME280;53400;50.364;14.874;2023-08-06T12:35:27;97341.72;;;16.79;100.00
66547;BME280;53400;50.364;14.874;2023-08-06T12:37:54;97338.53;;;16.77;100.00
66547;BME280;53400;50.364;14.874;2023-08-06T12:40:25;97343.78;;;16.82;100.00